createdAt,value
2017-10-17T00:02:02.349Z,15.00
2017-10-17T00:04:31.155Z,14.90
2017-10-17T00:06:59.946Z,14.90
2017-10-17T00:09:28.871Z,14.90
2017-10-17T00:11:57.655Z,14.90
2017-10-17T00:14:26.462Z,14.90
2017-10-17T00:16:55.307Z,14.90
2017-10-17T00:19:24.110Z,14.90
2017-10-17T00:21:52.901Z,14.90
2017-10-17T00:24:21.758Z,14.90
2017-10-17T00:26:50.552Z,14.90
2017-10-17T00:29:19.162Z,14.80
2017-10-17T00:31:48.055Z,14.70
2017-10-17T00:34:16.865Z,14.70
2017-10-17T00:36:45.647Z,14.70
2017-10-17T00:39:14.502Z,14.60
2017-10-17T00:41:43.326Z,14.60
2017-10-17T00:44:12.893Z,14.60
2017-10-17T00:46:41.691Z,14.60
2017-10-17T00:49:14.050Z,14.60
2017-10-17T00:51:42.839Z,14.60
2017-10-17T00:54:11.627Z,14.60
2017-10-17T00:56:40.444Z,14.60
2017-10-17T00:59:09.258Z,14.50
2017-10-17T01:01:38.047Z,14.50
2017-10-17T01:04:06.887Z,14.50
2017-10-17T01:06:35.502Z,14.60
2017-10-17T01:09:04.317Z,14.60
2017-10-17T01:11:33.319Z,14.60
2017-10-17T01:14:02.139Z,14.60
2017-10-17T01:16:31.710Z,14.70
2017-10-17T01:19:00.560Z,14.70
2017-10-17T01:21:29.375Z,14.70
2017-10-17T01:23:58.957Z,14.60
2017-10-17T01:26:27.801Z,14.70
2017-10-17T01:29:06.142Z,14.70
2017-10-17T01:31:34.986Z,14.70
2017-10-17T01:34:03.781Z,14.70
2017-10-17T01:36:32.562Z,14.60
2017-10-17T01:39:04.295Z,14.60
2017-10-17T01:41:33.084Z,14.60
2017-10-17T01:44:06.518Z,14.80
2017-10-17T01:46:41.961Z,14.80
2017-10-17T01:49:14.960Z,14.80
2017-10-17T01:51:47.339Z,14.80
2017-10-17T01:54:21.373Z,14.70
2017-10-17T01:56:50.379Z,14.80
2017-10-17T01:59:19.974Z,14.80
2017-10-17T02:01:48.818Z,14.80
2017-10-17T02:04:17.626Z,14.80
2017-10-17T02:06:47.184Z,14.80
2017-10-17T02:09:16.123Z,14.80
2017-10-17T02:11:44.907Z,14.90
2017-10-17T02:14:13.685Z,14.90
2017-10-17T02:16:42.513Z,15.00
2017-10-17T02:19:12.231Z,15.00
2017-10-17T02:21:43.628Z,15.00
2017-10-17T02:24:12.410Z,15.00
2017-10-17T02:26:41.023Z,15.00
2017-10-17T02:32:03.983Z,15.00
2017-10-17T02:34:36.166Z,15.00
2017-10-17T02:37:05.747Z,15.00
2017-10-17T02:39:34.537Z,15.00
2017-10-17T02:42:03.347Z,15.00
2017-10-17T02:44:32.906Z,15.00
2017-10-17T02:47:01.734Z,15.00
2017-10-17T02:49:31.440Z,15.00
2017-10-17T02:52:01.059Z,15.00
2017-10-17T02:54:30.664Z,15.00
2017-10-17T02:56:59.487Z,15.00
2017-10-17T02:59:29.014Z,15.00
2017-10-17T03:01:57.823Z,15.00
2017-10-17T03:04:27.527Z,15.00
2017-10-17T03:06:56.348Z,15.10
2017-10-17T03:09:25.998Z,15.10
2017-10-17T03:11:54.590Z,15.00
2017-10-17T03:14:25.365Z,15.00
2017-10-17T03:16:54.154Z,15.00
2017-10-17T03:19:22.957Z,14.90
2017-10-17T03:22:03.358Z,14.90
2017-10-17T03:24:54.648Z,14.80
2017-10-17T03:27:24.240Z,14.80
2017-10-17T03:29:53.270Z,14.70
2017-10-17T03:32:22.591Z,14.80
2017-10-17T03:34:52.660Z,14.80
2017-10-17T03:37:33.606Z,14.80
2017-10-17T03:43:08.262Z,14.70
2017-10-17T03:45:36.892Z,14.70
2017-10-17T03:48:13.026Z,14.70
2017-10-17T03:50:41.683Z,14.60
2017-10-17T03:53:21.919Z,14.60
2017-10-17T03:55:51.088Z,14.60
2017-10-17T03:58:20.366Z,14.50
2017-10-17T04:00:48.942Z,14.50
2017-10-17T04:03:17.529Z,14.50
2017-10-17T04:05:51.957Z,14.50
2017-10-17T04:08:30.157Z,14.60
2017-10-17T04:14:13.669Z,14.50
2017-10-17T04:16:59.557Z,14.50
2017-10-17T04:19:49.627Z,14.50
2017-10-17T04:22:31.423Z,14.50
2017-10-17T04:25:21.507Z,14.50
2017-10-17T04:30:48.164Z,14.40
2017-10-17T04:33:23.361Z,14.30
2017-10-17T04:35:53.458Z,14.40
2017-10-17T04:38:22.040Z,14.30
2017-10-17T04:40:51.344Z,14.30
2017-10-17T04:43:31.896Z,14.30
2017-10-17T04:46:17.798Z,14.30
2017-10-17T04:48:58.841Z,14.20
2017-10-17T04:51:32.003Z,14.20
2017-10-17T04:57:06.544Z,14.20
2017-10-17T04:59:42.979Z,14.20
2017-10-17T05:05:12.751Z,14.20
2017-10-17T05:07:44.099Z,14.20
2017-10-17T05:13:09.587Z,14.10
2017-10-17T05:15:39.736Z,14.10
2017-10-17T05:18:37.858Z,14.10
2017-10-17T05:21:06.530Z,14.10
2017-10-17T05:26:28.370Z,14.10
2017-10-17T05:29:00.746Z,14.10
2017-10-17T05:31:31.255Z,14.10
2017-10-17T05:34:15.271Z,14.00
2017-10-17T05:36:45.986Z,14.00
2017-10-17T05:39:15.317Z,14.10
2017-10-17T05:41:43.723Z,14.10
2017-10-17T05:44:17.837Z,14.10
2017-10-17T05:46:48.450Z,14.10
2017-10-17T05:49:17.019Z,14.00
2017-10-17T05:51:45.575Z,14.10
2017-10-17T05:54:15.579Z,14.10
2017-10-17T05:56:44.859Z,14.10
2017-10-17T05:59:14.096Z,14.10
2017-10-17T06:01:44.053Z,14.00
2017-10-17T06:04:13.120Z,14.00
2017-10-17T06:06:43.155Z,14.10
2017-10-17T06:09:12.411Z,14.00
2017-10-17T06:11:41.637Z,14.10
2017-10-17T06:14:11.686Z,14.10
2017-10-17T06:16:41.373Z,14.10
2017-10-17T06:19:11.096Z,14.10
2017-10-17T06:21:40.775Z,14.10
2017-10-17T06:24:10.189Z,14.10
2017-10-17T06:26:39.899Z,14.20
2017-10-17T06:29:09.615Z,14.20
2017-10-17T06:31:39.435Z,14.30
2017-10-17T06:34:09.110Z,14.30
2017-10-17T06:36:38.838Z,14.30
2017-10-17T06:39:08.337Z,14.30
2017-10-17T06:41:37.844Z,14.40
2017-10-17T06:44:07.234Z,14.50
2017-10-17T06:46:37.716Z,14.50
2017-10-17T06:49:06.763Z,14.40
2017-10-17T06:51:36.459Z,14.50
2017-10-17T06:54:06.579Z,14.80
2017-10-17T06:56:37.035Z,14.90
2017-10-17T06:59:06.654Z,14.90
2017-10-17T07:01:36.019Z,15.20
2017-10-17T07:04:06.136Z,15.40
2017-10-17T07:06:36.629Z,15.50
2017-10-17T07:09:05.955Z,15.50
2017-10-17T07:11:36.255Z,15.70
2017-10-17T07:14:05.979Z,15.70
2017-10-17T07:16:35.201Z,15.80
2017-10-17T07:19:05.696Z,16.10
2017-10-17T07:21:35.873Z,16.10
2017-10-17T07:24:05.438Z,16.10
2017-10-17T07:26:34.553Z,16.20
2017-10-17T07:29:03.969Z,16.40
2017-10-17T07:31:33.719Z,16.50
2017-10-17T07:34:03.405Z,16.80
2017-10-17T07:36:32.839Z,16.90
2017-10-17T07:39:02.828Z,17.10
2017-10-17T07:41:32.236Z,17.10
2017-10-17T07:44:01.304Z,17.10
2017-10-17T07:46:30.736Z,17.20
2017-10-17T07:48:59.808Z,17.20
2017-10-17T07:51:28.883Z,17.30
2017-10-17T07:53:58.333Z,17.40
2017-10-17T07:56:27.739Z,17.40
2017-10-17T07:58:56.457Z,17.60
2017-10-17T08:01:26.646Z,18.00
2017-10-17T08:03:55.890Z,18.00
2017-10-17T08:06:24.845Z,18.10
2017-10-17T08:08:53.578Z,18.20
2017-10-17T08:11:22.287Z,18.40
2017-10-17T08:13:51.200Z,18.30
2017-10-17T08:16:20.649Z,18.40
2017-10-17T08:18:50.439Z,18.60
2017-10-17T08:21:21.534Z,19.00
2017-10-17T08:23:51.716Z,19.00
2017-10-17T08:26:21.131Z,19.00
2017-10-17T08:28:50.597Z,19.20
2017-10-17T08:31:20.021Z,19.50
2017-10-17T08:33:50.219Z,19.70
2017-10-17T08:36:19.643Z,19.70
2017-10-17T08:38:49.855Z,20.10
2017-10-17T08:41:19.688Z,20.40
2017-10-17T08:43:49.379Z,20.40
2017-10-17T08:46:18.784Z,20.50
2017-10-17T08:48:47.998Z,20.60
2017-10-17T08:51:18.227Z,21.30
2017-10-17T08:53:48.538Z,21.50
2017-10-17T08:56:18.708Z,21.50
2017-10-17T08:58:48.510Z,21.70
2017-10-17T09:01:17.903Z,21.50
2017-10-17T09:03:47.140Z,21.70
2017-10-17T09:06:16.591Z,22.00
2017-10-17T09:08:46.788Z,22.10
2017-10-17T09:11:16.231Z,22.10
2017-10-17T09:13:45.670Z,22.10
2017-10-17T09:16:15.089Z,22.20
2017-10-17T09:18:44.357Z,22.40
2017-10-17T09:21:13.567Z,22.40
2017-10-17T09:23:42.784Z,22.30
2017-10-17T09:26:12.233Z,22.10
2017-10-17T09:28:41.651Z,21.90
2017-10-17T09:31:11.089Z,21.70
2017-10-17T09:33:40.542Z,21.40
2017-10-17T09:36:10.702Z,21.20
2017-10-17T09:38:40.125Z,21.20
2017-10-17T09:41:09.549Z,21.10
2017-10-17T09:43:39.731Z,20.90
2017-10-17T09:46:09.190Z,20.90
2017-10-17T09:48:39.384Z,20.80
2017-10-17T09:51:09.573Z,20.90
2017-10-17T09:53:39.643Z,20.80
2017-10-17T09:56:09.835Z,20.80
2017-10-17T09:58:38.896Z,20.80
2017-10-17T10:01:08.311Z,20.80
2017-10-17T10:03:37.764Z,20.90
2017-10-17T10:06:07.804Z,21.10
2017-10-17T10:08:37.019Z,21.10
2017-10-17T10:11:06.432Z,21.10
2017-10-17T10:13:35.900Z,21.10
2017-10-17T10:16:06.083Z,21.20
2017-10-17T10:18:35.606Z,21.20
2017-10-17T10:21:05.019Z,21.40
2017-10-17T10:23:35.221Z,21.60
2017-10-17T10:26:04.637Z,21.60
2017-10-17T10:28:34.600Z,21.60
2017-10-17T10:31:04.031Z,21.50
2017-10-17T10:33:33.474Z,21.70
2017-10-17T10:36:03.646Z,21.90
2017-10-17T10:38:33.638Z,21.90
2017-10-17T10:41:03.749Z,21.80
2017-10-17T10:43:33.280Z,21.80
2017-10-17T10:46:02.901Z,21.90
2017-10-17T10:48:33.149Z,22.30
2017-10-17T10:51:02.572Z,22.30
2017-10-17T10:53:32.812Z,22.10
2017-10-17T10:56:02.232Z,22.10
2017-10-17T10:58:31.458Z,22.30
2017-10-17T11:01:00.923Z,22.40
2017-10-17T11:03:30.321Z,22.30
2017-10-17T11:06:00.506Z,22.50
2017-10-17T11:08:29.962Z,22.40
2017-10-17T11:10:59.398Z,22.60
2017-10-17T11:13:28.831Z,22.80
2017-10-17T11:15:58.279Z,23.00
2017-10-17T11:18:27.690Z,23.70
2017-10-17T11:20:58.009Z,24.40
2017-10-17T11:23:29.035Z,25.50
2017-10-17T11:25:59.219Z,25.50
2017-10-17T11:28:28.893Z,26.60
2017-10-17T11:30:58.117Z,27.20
2017-10-17T11:33:27.527Z,28.50
2017-10-17T11:35:57.026Z,29.80
2017-10-17T11:38:26.424Z,29.90
2017-10-17T11:41:07.102Z,29.70
2017-10-17T11:43:45.539Z,28.40
2017-10-17T11:46:15.547Z,29.80
2017-10-17T11:48:45.828Z,30.80
2017-10-17T11:51:15.299Z,30.70
2017-10-17T11:53:44.712Z,30.80
2017-10-17T11:56:14.137Z,31.20
2017-10-17T11:58:43.446Z,31.70
2017-10-17T12:01:12.845Z,31.80
2017-10-17T12:03:42.279Z,31.70
2017-10-17T12:06:11.687Z,31.40
2017-10-17T12:08:41.099Z,31.40
2017-10-17T12:11:10.962Z,31.10
2017-10-17T12:13:39.668Z,31.00
2017-10-17T12:16:09.072Z,31.40
2017-10-17T12:18:39.314Z,30.90
2017-10-17T12:21:08.403Z,30.90
2017-10-17T12:23:37.804Z,30.90
2017-10-17T12:26:07.274Z,30.60
2017-10-17T12:28:36.706Z,30.40
2017-10-17T12:31:05.805Z,30.50
2017-10-17T12:33:35.201Z,30.40
2017-10-17T12:36:04.623Z,30.40
2017-10-17T12:38:34.623Z,30.70
2017-10-17T12:41:04.061Z,30.90
2017-10-17T12:43:34.270Z,30.30
2017-10-17T12:46:03.600Z,30.30
2017-10-17T12:48:33.480Z,30.00
2017-10-17T12:51:02.874Z,30.30
2017-10-17T12:53:32.122Z,31.10
2017-10-17T12:56:02.302Z,31.10
2017-10-17T12:58:31.583Z,31.10
2017-10-17T13:01:01.016Z,31.20
2017-10-17T13:03:30.232Z,31.10
2017-10-17T13:06:01.243Z,31.50
2017-10-17T13:08:30.412Z,31.50
2017-10-17T13:10:59.828Z,32.00
2017-10-17T13:13:29.238Z,32.30
2017-10-17T13:15:57.999Z,32.50
2017-10-17T13:18:27.478Z,32.60
2017-10-17T13:20:57.668Z,31.40
2017-10-17T13:23:27.083Z,31.30
2017-10-17T13:25:56.470Z,31.20
2017-10-17T13:28:25.598Z,30.70
2017-10-17T13:30:55.763Z,30.10
2017-10-17T13:33:25.408Z,30.10
2017-10-17T13:35:55.531Z,30.70
2017-10-17T13:38:26.062Z,30.40
2017-10-17T13:40:55.749Z,30.90
2017-10-17T13:43:25.181Z,31.00
2017-10-17T13:45:54.624Z,30.40
2017-10-17T13:48:23.831Z,30.70
2017-10-17T13:50:53.260Z,31.20
2017-10-17T13:53:22.880Z,31.00
2017-10-17T13:55:52.390Z,31.10
2017-10-17T13:58:21.599Z,30.90
2017-10-17T14:00:51.039Z,30.60
2017-10-17T14:03:20.325Z,30.80
2017-10-17T14:05:50.541Z,30.30
2017-10-17T14:08:20.523Z,30.40
2017-10-17T14:10:49.632Z,30.40
2017-10-17T14:13:19.227Z,30.60
2017-10-17T14:15:48.484Z,30.50
2017-10-17T14:18:18.175Z,30.50
2017-10-17T14:20:48.032Z,30.20
2017-10-17T14:23:17.494Z,30.20
2017-10-17T14:25:48.790Z,29.80
2017-10-17T14:28:18.188Z,29.80
2017-10-17T14:30:47.600Z,29.10
2017-10-17T14:33:17.026Z,29.00
2017-10-17T14:35:46.446Z,29.10
2017-10-17T14:38:16.666Z,28.70
2017-10-17T14:40:46.843Z,28.10
2017-10-17T14:43:16.260Z,28.10
2017-10-17T14:45:45.658Z,27.60
2017-10-17T14:48:14.870Z,27.00
2017-10-17T14:50:44.287Z,26.40
2017-10-17T14:53:33.728Z,26.10
2017-10-17T14:56:03.299Z,26.00
2017-10-17T14:58:34.266Z,25.50
2017-10-17T15:01:03.699Z,25.50
2017-10-17T15:03:33.114Z,25.20
2017-10-17T15:06:03.443Z,24.30
2017-10-17T15:08:33.567Z,24.20
2017-10-17T15:11:02.810Z,24.20
2017-10-17T15:13:32.027Z,23.80
2017-10-17T15:16:01.284Z,23.80
2017-10-17T15:18:31.454Z,23.70
2017-10-17T15:21:00.729Z,23.60
2017-10-17T15:23:30.121Z,23.40
2017-10-17T15:25:59.575Z,23.30
2017-10-17T15:28:29.036Z,23.00
2017-10-17T15:30:58.744Z,22.90
2017-10-17T15:33:28.182Z,22.80
2017-10-17T15:35:57.630Z,22.70
2017-10-17T15:38:27.787Z,22.40
2017-10-17T15:40:57.212Z,22.40
2017-10-17T15:43:26.621Z,22.20
2017-10-17T15:45:56.033Z,22.00
2017-10-17T15:48:26.212Z,21.80
2017-10-17T15:50:55.653Z,21.80
2017-10-17T15:53:25.824Z,21.60
2017-10-17T15:55:55.254Z,21.60
2017-10-17T15:58:24.968Z,21.50
2017-10-17T16:00:54.417Z,21.60
2017-10-17T16:03:24.452Z,21.20
2017-10-17T16:05:55.538Z,21.00
2017-10-17T16:08:25.940Z,21.00
2017-10-17T16:10:56.400Z,20.60
2017-10-17T16:13:25.838Z,20.60
2017-10-17T16:15:55.288Z,20.60
2017-10-17T16:18:24.727Z,20.50
2017-10-17T16:20:54.134Z,20.30
2017-10-17T16:23:23.567Z,20.20
2017-10-17T16:25:53.795Z,20.00
2017-10-17T16:28:23.964Z,19.90
2017-10-17T16:30:53.399Z,19.80
2017-10-17T16:33:22.855Z,19.70
2017-10-17T16:35:52.270Z,19.60
2017-10-17T16:38:21.514Z,19.60
2017-10-17T16:40:51.725Z,19.50
2017-10-17T16:43:21.921Z,19.40
2017-10-17T16:45:51.341Z,19.40
2017-10-17T16:48:20.764Z,19.40
2017-10-17T16:50:50.841Z,19.40
2017-10-17T16:53:21.329Z,19.20
2017-10-17T16:55:51.493Z,19.20
2017-10-17T16:58:20.963Z,19.20
2017-10-17T17:00:50.630Z,19.20
2017-10-17T17:03:20.037Z,19.00
2017-10-17T17:05:49.535Z,19.00
2017-10-17T17:08:18.990Z,19.00
2017-10-17T17:10:48.402Z,18.90
2017-10-17T17:13:17.879Z,18.80
2017-10-17T17:15:48.077Z,18.60
2017-10-17T17:18:18.067Z,18.60
2017-10-17T17:20:47.482Z,18.60
2017-10-17T17:23:16.885Z,18.60
2017-10-17T17:25:46.342Z,18.50
2017-10-17T17:28:15.803Z,18.40
2017-10-17T17:30:45.007Z,18.30
2017-10-17T17:33:14.438Z,18.30
2017-10-17T17:35:43.857Z,18.20
2017-10-17T17:38:13.284Z,18.20
2017-10-17T17:40:42.734Z,18.30
2017-10-17T17:43:12.906Z,18.20
2017-10-17T17:45:42.033Z,18.20
2017-10-17T17:48:11.488Z,18.10
2017-10-17T17:50:40.952Z,18.00
2017-10-17T17:53:10.395Z,18.10
2017-10-17T17:55:39.803Z,18.00
2017-10-17T17:58:09.221Z,17.90
2017-10-17T18:00:37.996Z,17.80
2017-10-17T18:03:06.504Z,17.90
2017-10-17T18:05:35.915Z,17.90
2017-10-17T18:08:05.760Z,17.70
2017-10-17T18:10:35.863Z,17.70
2017-10-17T18:13:05.273Z,17.70
2017-10-17T18:15:34.755Z,17.60
2017-10-17T18:18:04.197Z,17.60
2017-10-17T18:20:34.219Z,17.50
2017-10-17T18:23:04.413Z,17.40
2017-10-17T18:25:33.852Z,17.30
2017-10-17T18:28:03.278Z,17.30
2017-10-17T18:30:33.033Z,17.30
2017-10-17T18:33:02.256Z,17.20
2017-10-17T18:35:32.258Z,17.10
2017-10-17T18:38:01.703Z,17.10
2017-10-17T18:40:31.123Z,17.20
2017-10-17T18:43:00.557Z,17.20
2017-10-17T18:45:30.006Z,17.20
2017-10-17T18:47:59.465Z,17.30
2017-10-17T18:50:28.879Z,17.40
2017-10-17T18:52:58.322Z,17.30
2017-10-17T18:55:27.714Z,17.30
2017-10-17T18:57:57.215Z,17.30
2017-10-17T19:00:27.502Z,17.20
2017-10-17T19:02:56.743Z,17.20
2017-10-17T19:05:26.175Z,17.20
2017-10-17T19:07:55.635Z,17.20
2017-10-17T19:10:25.854Z,17.20
2017-10-17T19:12:56.046Z,17.10
2017-10-17T19:15:25.636Z,17.10
2017-10-17T19:17:55.093Z,17.00
2017-10-17T19:20:25.338Z,16.90
2017-10-17T19:22:54.791Z,16.90
2017-10-17T19:25:24.227Z,16.90
2017-10-17T19:27:54.427Z,16.80
2017-10-17T19:30:23.466Z,16.80
2017-10-17T19:32:52.938Z,16.80
2017-10-17T19:35:22.352Z,16.70
2017-10-17T19:37:52.535Z,16.40
2017-10-17T19:40:21.976Z,16.40
2017-10-17T19:42:52.183Z,16.40
2017-10-17T19:45:22.914Z,16.40
2017-10-17T19:47:52.658Z,16.40
2017-10-17T19:50:22.072Z,16.50
2017-10-17T19:52:52.546Z,16.40
2017-10-17T19:55:21.816Z,16.40
2017-10-17T19:57:52.180Z,16.40
2017-10-17T20:00:20.764Z,16.30
2017-10-17T20:02:50.057Z,16.40
2017-10-17T20:05:19.467Z,16.30
2017-10-17T20:07:48.832Z,16.30
2017-10-17T20:10:18.983Z,16.30
2017-10-17T20:12:48.467Z,16.30
2017-10-17T20:15:19.051Z,16.20
2017-10-17T20:17:49.256Z,16.20
2017-10-17T20:20:18.594Z,16.20
2017-10-17T20:22:48.243Z,16.10
2017-10-17T20:25:17.511Z,16.10
2017-10-17T20:27:47.962Z,16.00
2017-10-17T20:30:17.318Z,16.00
2017-10-17T20:32:47.000Z,15.90
2017-10-17T20:35:16.075Z,15.90
2017-10-17T20:37:45.554Z,15.90
2017-10-17T20:40:14.957Z,15.90
2017-10-17T20:42:45.430Z,15.80
2017-10-17T20:45:14.766Z,15.80
2017-10-17T20:47:44.125Z,15.70
2017-10-17T20:50:13.556Z,15.50
2017-10-17T20:52:42.583Z,15.50
2017-10-17T20:55:12.511Z,15.40
2017-10-17T20:57:42.246Z,15.40
2017-10-17T21:00:11.248Z,15.50
2017-10-17T21:02:40.561Z,15.40
2017-10-17T21:05:10.271Z,15.40
2017-10-17T21:07:39.608Z,15.40
2017-10-17T21:10:09.580Z,15.40
2017-10-17T21:12:39.266Z,15.30
2017-10-17T21:15:08.966Z,15.30
2017-10-17T21:17:38.671Z,15.20
2017-10-17T21:20:08.407Z,15.20
2017-10-17T21:22:38.106Z,15.10
2017-10-17T21:25:07.825Z,15.20
2017-10-17T21:27:37.141Z,15.20
2017-10-17T21:30:06.469Z,15.30
2017-10-17T21:32:35.998Z,15.40
2017-10-17T21:35:05.684Z,15.30
2017-10-17T21:37:35.402Z,15.30
2017-10-17T21:40:04.924Z,15.30
2017-10-17T21:42:34.395Z,15.10
2017-10-17T21:45:04.109Z,15.00
2017-10-17T21:47:33.800Z,14.90
2017-10-17T21:50:03.520Z,14.90
2017-10-17T21:52:33.203Z,14.90
2017-10-17T21:55:02.920Z,14.80
2017-10-17T21:57:32.416Z,14.70
2017-10-17T22:00:01.917Z,14.70
2017-10-17T22:02:31.449Z,14.70
2017-10-17T22:05:00.959Z,14.60
2017-10-17T22:07:30.694Z,14.50
2017-10-17T22:10:00.383Z,14.40
2017-10-17T22:12:29.884Z,14.40
2017-10-17T22:14:59.606Z,14.40
2017-10-17T22:17:29.081Z,14.40
2017-10-17T22:19:58.826Z,14.40
2017-10-17T22:22:28.522Z,14.40
2017-10-17T22:24:58.227Z,14.40
2017-10-17T22:27:27.930Z,14.40
2017-10-17T22:29:57.657Z,14.40
2017-10-17T22:32:27.362Z,14.30
2017-10-17T22:34:57.046Z,14.30
2017-10-17T22:37:26.723Z,14.30
2017-10-17T22:39:56.456Z,14.20
2017-10-17T22:42:26.331Z,14.20
2017-10-17T22:44:55.854Z,14.20
2017-10-17T22:47:25.535Z,14.20
2017-10-17T22:49:54.829Z,14.20
2017-10-17T22:52:24.331Z,14.20
2017-10-17T22:54:53.827Z,14.20
2017-10-17T22:57:23.556Z,14.20
2017-10-17T22:59:52.879Z,14.10
2017-10-17T23:02:22.227Z,14.10
2017-10-17T23:04:51.837Z,14.10
2017-10-17T23:07:21.222Z,14.20
2017-10-17T23:09:50.701Z,14.10
2017-10-17T23:12:20.242Z,14.00
2017-10-17T23:14:50.689Z,13.90
2017-10-17T23:17:31.469Z,13.90
2017-10-17T23:20:12.180Z,13.90
2017-10-17T23:22:42.478Z,13.90
2017-10-17T23:25:12.154Z,13.90
2017-10-17T23:27:41.662Z,13.90
2017-10-17T23:30:11.015Z,13.90
2017-10-17T23:32:40.750Z,13.90
2017-10-17T23:35:11.187Z,13.90
2017-10-17T23:37:40.950Z,13.90
2017-10-17T23:40:10.436Z,13.90
2017-10-17T23:42:39.940Z,13.90
2017-10-17T23:45:09.671Z,13.90
2017-10-17T23:47:39.398Z,13.80
2017-10-17T23:50:09.122Z,13.80
2017-10-17T23:52:39.572Z,13.80
2017-10-17T23:55:09.279Z,13.80
2017-10-17T23:57:38.957Z,13.70
